Orbital elements of COSMOS 946
| Launched | 23 August 1977 |
| Flight ended | – |
| Launch site | Plesetsk Missile and Space Complex, Russia |
| Owner | Commonwealth of Independent States (former USSR) |
| NORAD ID | 10292 |
| Date fetched |
Epoch osculation |
Inc. [°] |
Ecc. | RA asc node [hr] |
Arg Peri. [°] |
Mean anom [°] |
Mean motion [rev/day] |
Abs. mag |
| Date fetched |
Epoch osculation |
Inc. [°] |
Ecc. | RA asc node [hr] |
Arg Peri. [°] |
Mean anom [°] |
Mean motion [rev/day] |
Abs. mag |
| 2026 May 08 17:57 | 2026 May 05 10:55:48 | 74.0248 | 0.00303 | 16.1728 | 91.4897 | 335.1931 | 12.44920 | – |
| 2026 May 07 17:58 | 2026 May 05 10:55:48 | 74.0248 | 0.00303 | 16.1728 | 91.4897 | 335.1931 | 12.44920 | – |
| 2026 May 06 17:57 | 2026 May 05 10:55:48 | 74.0248 | 0.00303 | 16.1728 | 91.4897 | 335.1931 | 12.44920 | – |
| 2026 May 05 17:57 | 2026 May 05 10:55:48 | 74.0248 | 0.00303 | 16.1728 | 91.4897 | 335.1931 | 12.44920 | – |
| 2026 May 04 17:57 | 2026 Apr 30 14:55:42 | 74.0242 | 0.00303 | 16.5971 | 98.8164 | 335.1931 | 12.44920 | – |
| 2026 May 03 17:57 | 2026 Apr 30 14:55:42 | 74.0242 | 0.00303 | 16.5971 | 98.8164 | 335.1931 | 12.44920 | – |
| 2026 May 02 17:57 | 2026 Apr 30 14:55:42 | 74.0242 | 0.00303 | 16.5971 | 98.8164 | 335.1931 | 12.44920 | – |
| 2026 May 01 17:56 | 2026 Apr 30 14:55:42 | 74.0242 | 0.00303 | 16.5971 | 98.8164 | 335.1931 | 12.44920 | – |
| 2026 Apr 30 17:56 | 2026 Apr 30 14:55:42 | 74.0242 | 0.00303 | 16.5971 | 98.8164 | 335.1931 | 12.44920 | – |
| 2026 Apr 29 17:57 | 2026 Apr 24 10:40:47 | 74.0233 | 0.00304 | 17.1393 | 108.1802 | 335.1931 | 12.44920 | – |
| 2026 Apr 28 17:56 | 2026 Apr 24 10:40:47 | 74.0233 | 0.00304 | 17.1393 | 108.1802 | 335.1931 | 12.44920 | – |
| 2026 Apr 27 17:58 | 2026 Apr 24 10:40:47 | 74.0233 | 0.00304 | 17.1393 | 108.1802 | 335.1931 | 12.44920 | – |
| 2026 Apr 26 17:58 | 2026 Apr 24 10:40:47 | 74.0233 | 0.00304 | 17.1393 | 108.1802 | 335.1931 | 12.44920 | – |
| 2026 Apr 25 17:58 | 2026 Apr 24 10:40:47 | 74.0233 | 0.00304 | 17.1393 | 108.1802 | 335.1931 | 12.44920 | – |
| 2026 Apr 24 17:59 | 2026 Apr 24 10:40:47 | 74.0233 | 0.00304 | 17.1393 | 108.1802 | 335.1931 | 12.44920 | – |
| 2026 Apr 23 17:57 | 2026 Apr 19 04:01:11 | 74.0226 | 0.00304 | 17.6027 | 116.1314 | 335.1931 | 12.44920 | – |
| 2026 Apr 22 17:57 | 2026 Apr 19 04:01:11 | 74.0226 | 0.00304 | 17.6027 | 116.1314 | 335.1931 | 12.44920 | – |
| 2026 Apr 21 17:57 | 2026 Apr 19 04:01:11 | 74.0226 | 0.00304 | 17.6027 | 116.1314 | 335.1931 | 12.44920 | – |
| 2026 Apr 20 17:57 | 2026 Apr 19 04:01:11 | 74.0226 | 0.00304 | 17.6027 | 116.1314 | 335.1931 | 12.44920 | – |
| 2026 Apr 19 17:58 | 2026 Apr 19 04:01:11 | 74.0226 | 0.00304 | 17.6027 | 116.1314 | 335.1931 | 12.44920 | – |
| 2026 Apr 18 17:56 | 2026 Apr 13 05:18:57 | 74.0223 | 0.00305 | 18.1247 | 125.0878 | 335.1931 | 12.44920 | – |
| 2026 Apr 16 17:57 | 2026 Apr 13 05:18:57 | 74.0223 | 0.00305 | 18.1247 | 125.0878 | 335.1931 | 12.44920 | – |
| 2026 Apr 14 17:57 | 2026 Apr 13 05:18:57 | 74.0223 | 0.00305 | 18.1247 | 125.0878 | 335.1931 | 12.44920 | – |
| 2026 Apr 13 17:57 | 2026 Apr 13 05:18:57 | 74.0223 | 0.00305 | 18.1247 | 125.0878 | 335.1931 | 12.44920 | – |
| 2026 Apr 12 17:57 | 2026 Apr 08 14:48:48 | 74.0222 | 0.00305 | 18.5290 | 132.0642 | 335.1931 | 12.44920 | – |
| 2026 Apr 11 17:57 | 2026 Apr 08 14:48:48 | 74.0222 | 0.00305 | 18.5290 | 132.0642 | 335.1931 | 12.44920 | – |